createdAt,value
2022-09-28T00:01:17.806Z,6.15
2022-09-28T00:03:48.098Z,6.47
2022-09-28T00:06:19.640Z,7.15
2022-09-28T00:08:50.270Z,6.65
2022-09-28T00:11:20.858Z,6.43
2022-09-28T00:13:51.602Z,7.20
2022-09-28T00:16:21.978Z,7.25
2022-09-28T00:18:51.576Z,6.03
2022-09-28T00:21:22.220Z,6.57
2022-09-28T00:24:12.288Z,7.03
2022-09-28T00:26:41.825Z,6.70
2022-09-28T00:29:16.611Z,7.32
2022-09-28T00:31:44.835Z,6.47
2022-09-28T00:34:14.603Z,6.50
2022-09-28T00:36:45.705Z,7.15
2022-09-28T00:39:15.089Z,8.27
2022-09-28T00:41:43.225Z,7.82
2022-09-28T00:44:39.187Z,7.88
2022-09-28T00:47:35.481Z,7.80
2022-09-28T00:50:09.957Z,7.47
2022-09-28T00:52:43.800Z,8.40
2022-09-28T00:55:16.745Z,7.83
2022-09-28T00:57:50.131Z,7.72
2022-09-28T01:00:18.265Z,7.82
2022-09-28T01:02:47.522Z,8.75
2022-09-28T01:05:19.082Z,7.73
2022-09-28T01:07:49.398Z,7.73
2022-09-28T01:10:17.510Z,7.40
2022-09-28T01:12:45.668Z,7.55
2022-09-28T01:15:14.789Z,8.23
2022-09-28T01:17:57.866Z,7.83
2022-09-28T01:20:40.405Z,8.15
2022-09-28T01:24:09.723Z,7.73
2022-09-28T01:26:57.735Z,8.07
2022-09-28T01:29:37.009Z,8.10
2022-09-28T01:32:16.598Z,8.43
2022-09-28T01:34:54.013Z,8.80
2022-09-28T01:37:25.344Z,8.27
2022-09-28T01:39:57.072Z,7.57
2022-09-28T01:42:31.719Z,7.63
2022-09-28T01:45:16.166Z,7.93
2022-09-28T01:47:47.434Z,8.50
2022-09-28T01:50:21.893Z,9.80
2022-09-28T01:52:54.899Z,8.90
2022-09-28T01:55:30.995Z,8.53
2022-09-28T01:58:04.809Z,8.67
2022-09-28T02:00:35.885Z,9.07
2022-09-28T02:03:09.782Z,8.73
2022-09-28T02:05:40.657Z,9.13
2022-09-28T02:08:14.553Z,7.93
2022-09-28T02:10:45.065Z,8.77
2022-09-28T02:13:19.924Z,8.03
2022-09-28T02:15:54.913Z,8.18
2022-09-28T02:18:23.192Z,8.33
2022-09-28T02:20:57.977Z,7.97
2022-09-28T02:23:28.336Z,8.97
2022-09-28T02:26:03.425Z,8.07
2022-09-28T02:28:32.787Z,8.30
2022-09-28T02:31:01.800Z,7.05
2022-09-28T02:33:35.235Z,5.73
2022-09-28T02:36:04.653Z,6.15
2022-09-28T02:38:33.078Z,5.37
2022-09-28T02:41:06.815Z,6.30
2022-09-28T02:43:51.395Z,5.47
2022-09-28T02:46:31.606Z,5.60
2022-09-28T02:49:23.406Z,5.30
2022-09-28T02:52:07.118Z,5.63
2022-09-28T02:54:53.055Z,6.33
2022-09-28T02:57:35.733Z,7.63
2022-09-28T03:00:10.318Z,7.60
2022-09-28T03:02:50.858Z,7.43
2022-09-28T03:05:23.864Z,7.80
2022-09-28T03:07:58.853Z,7.70
2022-09-28T03:10:35.885Z,8.13
2022-09-28T03:13:05.677Z,8.43
2022-09-28T03:15:37.200Z,8.30
2022-09-28T03:18:06.008Z,8.07
2022-09-28T03:20:35.295Z,7.50
2022-09-28T03:23:23.699Z,8.93
2022-09-28T03:25:51.363Z,7.97
2022-09-28T03:28:19.677Z,7.63
2022-09-28T03:30:49.010Z,7.93
2022-09-28T03:33:17.034Z,7.03
2022-09-28T03:35:48.332Z,7.67
2022-09-28T03:38:17.052Z,7.40
2022-09-28T03:40:45.555Z,7.03
2022-09-28T03:43:13.646Z,7.53
2022-09-28T03:45:42.007Z,7.73
2022-09-28T03:48:11.355Z,8.10
2022-09-28T03:50:39.359Z,7.83
2022-09-28T03:53:07.322Z,8.40
2022-09-28T03:55:35.436Z,8.60
2022-09-28T03:58:03.416Z,8.17
2022-09-28T04:00:31.425Z,8.50
2022-09-28T04:02:59.455Z,8.50
2022-09-28T04:05:28.875Z,8.33
2022-09-28T04:07:57.933Z,7.83
2022-09-28T04:10:26.435Z,8.70
2022-09-28T04:12:56.204Z,8.93
2022-09-28T04:15:24.959Z,8.50
2022-09-28T04:17:53.243Z,8.00
2022-09-28T04:20:22.146Z,8.57
2022-09-28T04:22:51.782Z,9.13
2022-09-28T04:25:19.738Z,8.57
2022-09-28T04:28:05.154Z,8.13
2022-09-28T04:30:33.501Z,7.73
2022-09-28T04:33:01.573Z,8.37
2022-09-28T04:35:29.550Z,7.87
2022-09-28T04:37:59.136Z,7.90
2022-09-28T04:40:27.151Z,7.53
2022-09-28T04:42:56.160Z,7.10
2022-09-28T04:45:26.135Z,7.23
2022-09-28T04:47:54.655Z,8.10
2022-09-28T04:50:22.749Z,7.77
2022-09-28T04:52:50.675Z,8.10
2022-09-28T04:55:20.738Z,8.50
2022-09-28T04:57:48.760Z,7.17
2022-09-28T05:00:18.491Z,7.43
2022-09-28T05:02:47.055Z,7.40
2022-09-28T05:05:15.125Z,7.40
2022-09-28T05:07:43.093Z,7.40
2022-09-28T05:10:11.204Z,8.27
2022-09-28T05:12:41.189Z,8.40
2022-09-28T05:15:09.559Z,9.03
2022-09-28T05:17:37.581Z,8.27
2022-09-28T05:20:06.568Z,8.40
2022-09-28T05:22:34.846Z,7.60
2022-09-28T05:25:03.031Z,8.10
2022-09-28T05:27:31.128Z,7.67
2022-09-28T05:30:00.542Z,8.07
2022-09-28T05:32:28.537Z,7.37
2022-09-28T05:34:56.993Z,6.80
2022-09-28T05:37:26.003Z,5.90
2022-09-28T05:39:54.071Z,6.83
2022-09-28T05:42:22.226Z,5.30
2022-09-28T05:44:50.474Z,6.03
2022-09-28T05:47:20.118Z,6.77
2022-09-28T05:49:48.207Z,5.90
2022-09-28T05:52:16.218Z,6.40
2022-09-28T05:54:44.339Z,6.10
2022-09-28T05:57:12.780Z,5.30
2022-09-28T05:59:40.812Z,6.28
2022-09-28T06:02:08.928Z,5.97
2022-09-28T06:04:38.453Z,5.22
2022-09-28T06:07:06.593Z,5.38
2022-09-28T06:09:34.592Z,5.32
2022-09-28T06:12:03.762Z,4.70
2022-09-28T06:14:32.329Z,4.38
2022-09-28T06:17:00.535Z,4.60
2022-09-28T06:19:28.764Z,4.05
2022-09-28T06:21:59.714Z,3.80
2022-09-28T06:24:27.686Z,3.58
2022-09-28T06:26:55.711Z,3.90
2022-09-28T06:29:23.704Z,3.72
2022-09-28T06:31:51.680Z,4.43
2022-09-28T06:34:21.505Z,3.80
2022-09-28T06:36:49.484Z,3.60
2022-09-28T06:39:18.962Z,3.50
2022-09-28T06:41:47.045Z,3.03
2022-09-28T06:44:15.390Z,3.00
2022-09-28T06:46:43.534Z,3.47
2022-09-28T06:49:14.195Z,3.83
2022-09-28T06:51:47.373Z,3.78
2022-09-28T06:54:15.583Z,3.33
2022-09-28T06:56:44.994Z,3.90
2022-09-28T06:59:13.061Z,3.63
2022-09-28T07:01:41.202Z,3.42
2022-09-28T07:04:09.264Z,4.05
2022-09-28T07:06:38.624Z,4.18
2022-09-28T07:09:26.257Z,4.03
2022-09-28T07:11:56.867Z,4.65
2022-09-28T07:14:44.621Z,3.95
2022-09-28T07:17:14.940Z,4.60
2022-09-28T07:19:43.418Z,4.07
2022-09-28T07:22:18.855Z,3.80
2022-09-28T07:24:48.236Z,3.80
2022-09-28T07:27:18.083Z,3.20
2022-09-28T07:29:46.046Z,3.33
2022-09-28T07:32:14.089Z,4.03
2022-09-28T07:34:43.874Z,4.22
2022-09-28T07:37:12.548Z,3.88
2022-09-28T07:39:54.768Z,3.92
2022-09-28T07:42:24.596Z,4.40
2022-09-28T07:44:52.802Z,3.92
2022-09-28T07:47:30.846Z,4.15
2022-09-28T07:50:00.548Z,4.75
2022-09-28T07:52:28.933Z,4.13
2022-09-28T07:54:57.002Z,3.42
2022-09-28T07:57:26.499Z,3.45
2022-09-28T07:59:54.908Z,4.72
2022-09-28T08:02:23.186Z,4.53
2022-09-28T08:04:51.750Z,3.90
2022-09-28T08:07:23.628Z,3.88
2022-09-28T08:09:52.119Z,3.75
2022-09-28T08:12:21.251Z,4.15
2022-09-28T08:14:52.292Z,4.30
2022-09-28T08:17:20.420Z,4.55
2022-09-28T08:20:05.565Z,4.10
2022-09-28T08:22:33.559Z,4.10
2022-09-28T08:25:01.524Z,4.05
2022-09-28T08:27:29.495Z,3.47
2022-09-28T08:29:59.073Z,4.03
2022-09-28T08:32:27.061Z,3.33
2022-09-28T08:34:56.104Z,3.72
2022-09-28T08:37:24.135Z,3.97
2022-09-28T08:39:52.250Z,3.33
2022-09-28T08:42:34.238Z,2.75
2022-09-28T08:45:09.989Z,3.42
2022-09-28T08:48:05.946Z,2.80
2022-09-28T08:50:38.042Z,2.55
2022-09-28T08:53:20.946Z,3.00
2022-09-28T08:55:49.495Z,2.88
2022-09-28T08:58:21.615Z,2.92
2022-09-28T09:00:53.519Z,2.60
2022-09-28T09:03:24.675Z,4.05
2022-09-28T09:06:05.188Z,2.83
2022-09-28T09:08:50.443Z,2.92
2022-09-28T09:11:32.114Z,3.05
2022-09-28T09:14:23.153Z,2.78
2022-09-28T09:17:01.188Z,3.15
2022-09-28T09:19:36.788Z,2.90
2022-09-28T09:22:15.292Z,2.50
2022-09-28T09:24:50.203Z,2.40
2022-09-28T09:27:37.642Z,2.50
2022-09-28T09:30:11.131Z,2.10
2022-09-28T09:32:59.812Z,1.92
2022-09-28T09:35:47.587Z,2.35
2022-09-28T09:38:33.086Z,2.53
2022-09-28T09:44:12.178Z,2.10
2022-09-28T09:46:46.933Z,2.22
2022-09-28T09:49:20.849Z,2.50
2022-09-28T09:51:54.082Z,2.15
2022-09-28T09:54:26.250Z,2.25
2022-09-28T09:56:58.883Z,2.30
2022-09-28T09:59:33.653Z,2.80
2022-09-28T10:02:03.934Z,2.42
2022-09-28T10:04:39.032Z,2.58
2022-09-28T10:07:10.713Z,2.78
2022-09-28T10:09:44.100Z,2.97
2022-09-28T10:12:20.061Z,2.60
2022-09-28T10:14:48.335Z,2.92
2022-09-28T10:17:19.780Z,2.55
2022-09-28T10:19:49.203Z,2.58
2022-09-28T10:22:21.990Z,2.60
2022-09-28T10:24:53.164Z,2.88
2022-09-28T10:27:25.181Z,3.10
2022-09-28T10:29:56.558Z,2.70
2022-09-28T10:32:25.949Z,2.67
2022-09-28T10:35:22.809Z,2.90
2022-09-28T10:37:54.632Z,2.65
2022-09-28T10:40:43.761Z,3.05
2022-09-28T10:43:25.789Z,2.90
2022-09-28T10:46:02.977Z,3.13
2022-09-28T10:48:40.085Z,3.45
2022-09-28T10:51:10.004Z,2.78
2022-09-28T10:53:38.507Z,2.58
2022-09-28T10:56:08.908Z,2.95
2022-09-28T10:58:40.592Z,2.80
2022-09-28T11:01:12.063Z,2.90
2022-09-28T11:03:51.158Z,2.55
2022-09-28T11:06:28.411Z,2.85
2022-09-28T11:08:58.769Z,3.15
2022-09-28T11:11:27.209Z,2.95
2022-09-28T11:14:00.488Z,2.35
2022-09-28T11:16:30.881Z,2.70
2022-09-28T11:19:04.272Z,2.90
2022-09-28T11:21:43.434Z,2.55
2022-09-28T11:24:21.606Z,2.58
2022-09-28T11:26:53.700Z,2.58
2022-09-28T11:29:26.913Z,2.28
2022-09-28T11:32:00.355Z,2.47
2022-09-28T11:34:54.927Z,2.28
2022-09-28T11:37:43.552Z,2.60
2022-09-28T11:40:24.137Z,2.47
2022-09-28T11:43:02.022Z,2.38
2022-09-28T11:45:42.481Z,2.17
2022-09-28T11:48:15.643Z,2.67
2022-09-28T11:50:50.684Z,2.38
2022-09-28T11:53:26.802Z,2.20
2022-09-28T11:56:04.219Z,2.10
2022-09-28T11:58:36.643Z,2.10
2022-09-28T12:01:09.907Z,2.17
2022-09-28T12:03:43.223Z,2.50
2022-09-28T12:06:16.991Z,2.35
2022-09-28T12:08:52.388Z,2.58
2022-09-28T12:11:25.006Z,2.17
2022-09-28T12:13:56.168Z,2.08
2022-09-28T12:16:53.522Z,2.75
2022-09-28T12:19:20.305Z,1.92
2022-09-28T12:21:51.856Z,2.10
2022-09-28T12:24:26.160Z,2.10
2022-09-28T12:27:00.586Z,1.80
2022-09-28T12:29:34.400Z,2.38
2022-09-28T12:32:11.068Z,1.50
2022-09-28T12:34:39.200Z,1.52
2022-09-28T12:37:30.768Z,1.38
2022-09-28T12:40:23.480Z,1.70
2022-09-28T12:43:07.549Z,2.08
2022-09-28T12:46:11.090Z,1.90
2022-09-28T12:49:47.243Z,3.55
2022-09-28T12:51:50.584Z,2.08
2022-09-28T12:54:43.193Z,2.03
2022-09-28T12:57:32.006Z,2.58
2022-09-28T13:00:06.066Z,1.65
2022-09-28T13:03:09.044Z,1.77
2022-09-28T13:06:20.255Z,2.10
2022-09-28T13:09:05.826Z,1.83
2022-09-28T13:11:42.610Z,1.60
2022-09-28T13:14:38.045Z,1.65
2022-09-28T13:17:17.295Z,2.10
2022-09-28T13:19:52.033Z,2.20
2022-09-28T13:22:29.841Z,1.67
2022-09-28T13:25:03.791Z,1.90
2022-09-28T13:27:38.230Z,1.85
2022-09-28T13:30:08.998Z,2.00
2022-09-28T13:32:39.124Z,1.92
2022-09-28T13:35:07.708Z,1.60
2022-09-28T13:37:35.731Z,1.65
2022-09-28T13:40:06.297Z,1.85
2022-09-28T13:43:00.507Z,1.70
2022-09-28T13:45:41.047Z,1.80
2022-09-28T13:48:16.117Z,1.80
2022-09-28T13:51:06.136Z,2.67
2022-09-28T13:53:58.882Z,2.10
2022-09-28T13:56:37.934Z,1.83
2022-09-28T13:59:17.463Z,2.33
2022-09-28T14:01:55.873Z,1.83
2022-09-28T14:04:26.359Z,1.95
2022-09-28T14:06:57.992Z,2.25
2022-09-28T14:09:43.458Z,1.70
2022-09-28T14:12:45.712Z,2.15
2022-09-28T14:15:43.418Z,2.38
2022-09-28T14:18:29.947Z,2.58
2022-09-28T14:21:22.904Z,1.95
2022-09-28T14:24:09.111Z,2.42
2022-09-28T14:27:18.749Z,2.28
2022-09-28T14:29:56.028Z,1.95
2022-09-28T14:32:26.912Z,2.25
2022-09-28T14:35:04.615Z,3.00
2022-09-28T14:37:53.196Z,2.20
2022-09-28T14:40:41.605Z,1.55
2022-09-28T14:43:25.536Z,2.60
2022-09-28T14:46:28.458Z,2.20
2022-09-28T14:48:58.411Z,2.00
2022-09-28T14:52:04.576Z,1.70
2022-09-28T14:54:53.597Z,2.45
2022-09-28T14:57:25.556Z,2.30
2022-09-28T14:59:54.402Z,2.47
2022-09-28T15:02:26.581Z,2.30
2022-09-28T15:05:00.414Z,1.92
2022-09-28T15:07:34.377Z,1.90
2022-09-28T15:10:02.746Z,2.17
2022-09-28T15:12:32.178Z,1.73
2022-09-28T15:15:02.804Z,2.50
2022-09-28T15:17:39.154Z,2.20
2022-09-28T15:20:30.177Z,2.00
2022-09-28T15:23:01.112Z,2.47
2022-09-28T15:25:31.911Z,2.50
2022-09-28T15:28:04.665Z,2.10
2022-09-28T15:30:33.941Z,2.20
2022-09-28T15:33:18.191Z,2.50
2022-09-28T15:35:50.935Z,2.25
2022-09-28T15:38:20.448Z,2.53
2022-09-28T15:40:48.809Z,3.08
2022-09-28T15:43:29.121Z,3.08
2022-09-28T15:46:02.791Z,3.13
2022-09-28T15:48:34.444Z,3.38
2022-09-28T15:51:10.937Z,2.90
2022-09-28T15:53:47.770Z,2.95
2022-09-28T15:56:15.780Z,2.50
2022-09-28T15:58:44.358Z,3.47
2022-09-28T16:01:27.453Z,4.05
2022-09-28T16:03:55.769Z,3.10
2022-09-28T16:06:24.280Z,3.58
2022-09-28T16:08:53.886Z,3.17
2022-09-28T16:11:24.272Z,3.25
2022-09-28T16:14:01.620Z,4.10
2022-09-28T16:16:31.954Z,3.88
2022-09-28T16:19:01.921Z,4.28
2022-09-28T16:21:43.793Z,4.57
2022-09-28T16:24:22.821Z,4.80
2022-09-28T16:26:58.569Z,4.63
2022-09-28T16:29:29.535Z,4.45
2022-09-28T16:31:57.532Z,4.80
2022-09-28T16:34:27.307Z,4.95
2022-09-28T16:36:55.857Z,4.68
2022-09-28T16:39:25.524Z,5.13
2022-09-28T16:41:56.403Z,5.13
2022-09-28T16:44:27.056Z,5.15
2022-09-28T16:47:00.765Z,4.63
2022-09-28T16:49:31.849Z,4.65
2022-09-28T16:52:00.445Z,4.43
2022-09-28T16:54:48.299Z,5.30
2022-09-28T16:57:16.670Z,4.50
2022-09-28T16:59:45.180Z,3.95
2022-09-28T17:02:42.106Z,5.32
2022-09-28T17:05:07.612Z,4.82
2022-09-28T17:07:35.776Z,4.82
2022-09-28T17:10:15.826Z,3.83
2022-09-28T17:12:44.429Z,3.42
2022-09-28T17:15:13.251Z,3.73
2022-09-28T17:17:41.858Z,2.95
2022-09-28T17:20:23.221Z,3.88
2022-09-28T17:22:51.999Z,3.45
2022-09-28T17:25:23.120Z,4.03
2022-09-28T17:27:52.584Z,3.17
2022-09-28T17:30:23.753Z,2.83
2022-09-28T17:32:53.769Z,2.00
2022-09-28T17:35:24.616Z,2.17
2022-09-28T17:37:53.707Z,2.10
2022-09-28T17:40:25.335Z,2.17
2022-09-28T17:42:56.744Z,2.25
2022-09-28T17:45:27.065Z,2.50
2022-09-28T17:47:55.345Z,2.40
2022-09-28T17:50:26.355Z,2.10
2022-09-28T17:52:55.005Z,3.00
2022-09-28T17:55:28.935Z,2.35
2022-09-28T17:57:57.678Z,2.95
2022-09-28T18:00:27.865Z,2.42
2022-09-28T18:02:56.751Z,3.00
2022-09-28T18:05:25.692Z,2.33
2022-09-28T18:07:53.791Z,2.83
2022-09-28T18:10:24.153Z,3.22
2022-09-28T18:12:53.542Z,3.55
2022-09-28T18:15:21.879Z,3.05
2022-09-28T18:17:50.108Z,2.83
2022-09-28T18:20:18.239Z,3.03
2022-09-28T18:22:46.396Z,2.72
2022-09-28T18:25:14.393Z,2.58
2022-09-28T18:27:42.680Z,2.58
2022-09-28T18:30:13.875Z,2.63
2022-09-28T18:32:41.829Z,2.85
2022-09-28T18:35:11.268Z,2.92
2022-09-28T18:37:41.201Z,2.42
2022-09-28T18:40:12.841Z,2.60
2022-09-28T18:42:41.017Z,1.95
2022-09-28T18:45:12.570Z,2.33
2022-09-28T18:47:41.051Z,2.45
2022-09-28T18:50:11.622Z,1.98
2022-09-28T18:52:40.213Z,2.33
2022-09-28T18:55:09.537Z,1.95
2022-09-28T18:57:37.894Z,1.85
2022-09-28T19:00:08.975Z,1.80
2022-09-28T19:02:39.173Z,1.85
2022-09-28T19:05:08.973Z,1.92
2022-09-28T19:07:37.406Z,1.77
2022-09-28T19:10:06.302Z,1.80
2022-09-28T19:12:34.633Z,1.83
2022-09-28T19:15:02.777Z,1.80
2022-09-28T19:17:30.936Z,1.80
2022-09-28T19:20:00.534Z,1.98
2022-09-28T19:22:28.996Z,1.45
2022-09-28T19:24:57.016Z,1.50
2022-09-28T19:27:24.962Z,1.60
2022-09-28T19:29:52.976Z,1.67
2022-09-28T19:32:20.960Z,1.30
2022-09-28T19:34:48.923Z,1.30
2022-09-28T19:37:18.311Z,1.40
2022-09-28T19:39:46.527Z,1.33
2022-09-28T19:42:14.564Z,1.45
2022-09-28T19:44:42.517Z,1.50
2022-09-28T19:47:11.735Z,1.60
2022-09-28T19:49:41.073Z,1.40
2022-09-28T19:52:17.387Z,1.42
2022-09-28T19:54:56.954Z,1.70
2022-09-28T19:57:26.103Z,1.50
2022-09-28T19:59:57.877Z,1.70
2022-09-28T20:02:29.190Z,2.15
2022-09-28T20:04:57.249Z,2.30
2022-09-28T20:07:25.233Z,2.53
2022-09-28T20:09:54.995Z,2.42
2022-09-28T20:12:24.009Z,2.70
2022-09-28T20:14:51.985Z,2.38
2022-09-28T20:17:21.775Z,2.33
2022-09-28T20:19:51.813Z,2.13
2022-09-28T20:22:20.137Z,2.30
2022-09-28T20:24:48.328Z,2.00
2022-09-28T20:27:17.770Z,2.38
2022-09-28T20:29:45.724Z,2.10
2022-09-28T20:32:14.336Z,2.30
2022-09-28T20:34:42.350Z,2.70
2022-09-28T20:37:13.753Z,2.40
2022-09-28T20:39:44.924Z,1.77
2022-09-28T20:42:14.397Z,2.20
2022-09-28T20:44:44.275Z,2.05
2022-09-28T20:47:12.228Z,2.13
2022-09-28T20:49:40.211Z,1.80
2022-09-28T20:52:08.157Z,1.95
2022-09-28T20:54:36.273Z,1.90
2022-09-28T20:57:17.355Z,2.20
2022-09-28T20:59:49.777Z,2.10
2022-09-28T21:02:21.808Z,2.30
2022-09-28T21:04:49.819Z,2.00
2022-09-28T21:07:17.758Z,1.90
2022-09-28T21:09:45.799Z,1.70
2022-09-28T21:12:15.533Z,1.98
2022-09-28T21:14:43.500Z,2.35
2022-09-28T21:17:12.906Z,2.47
2022-09-28T21:19:40.890Z,2.80
2022-09-28T21:22:08.836Z,4.63
2022-09-28T21:24:37.012Z,5.97
2022-09-28T21:27:05.183Z,7.93
2022-09-28T21:29:33.131Z,6.40
2022-09-28T21:32:01.334Z,7.13
2022-09-28T21:34:30.898Z,6.25
2022-09-28T21:36:59.025Z,6.47
2022-09-28T21:39:27.012Z,6.55
2022-09-28T21:41:54.985Z,5.88
2022-09-28T21:44:23.006Z,8.68
2022-09-28T21:46:51.159Z,9.63
2022-09-28T21:49:19.361Z,8.63
2022-09-28T21:51:48.688Z,8.90
2022-09-28T21:54:16.726Z,8.40
2022-09-28T21:56:44.702Z,7.78
2022-09-28T21:59:12.672Z,7.32
2022-09-28T22:01:42.982Z,6.50
2022-09-28T22:04:11.855Z,7.38
2022-09-28T22:06:39.932Z,7.45
2022-09-28T22:09:09.516Z,6.78
2022-09-28T22:11:38.247Z,5.93
2022-09-28T22:14:06.223Z,6.80
2022-09-28T22:16:34.383Z,6.13
2022-09-28T22:19:02.350Z,5.57
2022-09-28T22:21:31.901Z,6.07
2022-09-28T22:24:02.055Z,5.80
2022-09-28T22:26:33.661Z,4.85
2022-09-28T22:29:03.718Z,5.03
2022-09-28T22:31:34.229Z,5.40
2022-09-28T22:34:02.749Z,4.25
2022-09-28T22:36:31.112Z,4.90
2022-09-28T22:38:59.650Z,4.22
2022-09-28T22:41:28.398Z,4.00
2022-09-28T22:43:57.834Z,4.30
2022-09-28T22:46:27.409Z,4.30
2022-09-28T22:48:57.469Z,4.22
2022-09-28T22:51:26.971Z,4.15
2022-09-28T22:53:54.991Z,4.25
2022-09-28T22:56:23.175Z,4.10
2022-09-28T22:58:51.279Z,4.13
2022-09-28T23:01:22.571Z,4.25
2022-09-28T23:03:51.637Z,4.80
2022-09-28T23:06:21.390Z,4.78
2022-09-28T23:08:50.497Z,4.25
2022-09-28T23:11:18.918Z,4.78
2022-09-28T23:13:50.173Z,4.72
2022-09-28T23:16:18.526Z,4.50
2022-09-28T23:18:49.469Z,5.40
2022-09-28T23:21:19.298Z,4.68
2022-09-28T23:23:52.017Z,5.13
2022-09-28T23:26:22.301Z,5.15
2022-09-28T23:28:50.280Z,4.95
2022-09-28T23:31:20.362Z,6.10
2022-09-28T23:33:50.163Z,5.65
2022-09-28T23:36:18.836Z,6.15
2022-09-28T23:38:46.790Z,5.57
2022-09-28T23:41:14.754Z,4.93
2022-09-28T23:43:42.664Z,5.32
2022-09-28T23:46:10.708Z,4.90
2022-09-28T23:48:38.780Z,5.38
2022-09-28T23:51:08.738Z,6.18
2022-09-28T23:53:36.900Z,5.15
2022-09-28T23:56:05.045Z,5.20
2022-09-28T23:58:33.052Z,4.82
